createdAt,value
2022-09-13T00:00:50.039Z,11.79
2022-09-13T00:04:10.972Z,11.84
2022-09-13T00:07:31.937Z,11.87
2022-09-13T00:10:47.956Z,11.89
2022-09-13T00:14:08.938Z,11.89
2022-09-13T00:17:29.954Z,11.83
2022-09-13T00:20:50.938Z,11.74
2022-09-13T00:24:12.006Z,11.61
2022-09-13T00:27:32.951Z,11.47
2022-09-13T00:30:53.970Z,11.38
2022-09-13T00:34:14.996Z,11.30
2022-09-13T00:37:35.993Z,11.23
2022-09-13T00:40:56.944Z,11.20
2022-09-13T00:44:19.965Z,11.17
2022-09-13T00:47:51.967Z,11.18
2022-09-13T00:51:05.996Z,11.14
2022-09-13T00:54:28.943Z,11.08
2022-09-13T00:57:50.972Z,10.99
2022-09-13T01:01:12.961Z,10.92
2022-09-13T01:04:35.965Z,10.90
2022-09-13T01:07:57.953Z,10.87
2022-09-13T01:11:23.965Z,10.86
2022-09-13T01:14:45.974Z,10.85
2022-09-13T01:18:07.995Z,10.80
2022-09-13T01:22:07.963Z,10.72
2022-09-13T01:25:48.965Z,10.65
2022-09-13T01:29:54.045Z,10.65
2022-09-13T01:34:06.979Z,10.62
2022-09-13T01:37:57.989Z,10.67
2022-09-13T01:41:47.962Z,10.71
2022-09-13T01:45:24.020Z,10.77
2022-09-13T01:49:06.953Z,10.83
2022-09-13T01:52:48.955Z,10.88
2022-09-13T01:56:19.981Z,10.94
2022-09-13T01:59:58.961Z,10.98
2022-09-13T02:03:35.998Z,11.00
2022-09-13T02:07:03.954Z,11.04
2022-09-13T02:10:38.974Z,11.03
2022-09-13T02:14:05.964Z,10.95
2022-09-13T02:17:31.971Z,10.84
2022-09-13T02:20:58.990Z,10.73
2022-09-13T02:24:25.019Z,10.62
2022-09-13T02:27:47.996Z,10.51
2022-09-13T02:31:13.097Z,10.43
2022-09-13T02:34:44.998Z,10.32
2022-09-13T02:38:13.990Z,10.31
2022-09-13T02:41:56.991Z,10.27
2022-09-13T02:45:19.964Z,10.24
2022-09-13T02:48:55.986Z,10.19
2022-09-13T02:52:51.987Z,10.19
2022-09-13T02:56:17.989Z,10.22
2022-09-13T02:59:38.986Z,10.25
2022-09-13T03:03:01.990Z,10.30
2022-09-13T03:06:22.954Z,10.36
2022-09-13T03:09:44.978Z,10.46
2022-09-13T03:13:08.009Z,10.55
2022-09-13T03:16:58.011Z,10.65
2022-09-13T03:20:41.038Z,10.74
2022-09-13T03:24:19.978Z,10.85
2022-09-13T03:27:51.005Z,10.93
2022-09-13T03:31:24.060Z,11.05
2022-09-13T03:34:58.994Z,11.11
2022-09-13T03:38:25.981Z,11.15
2022-09-13T03:41:53.001Z,11.21
2022-09-13T03:45:15.995Z,11.31
2022-09-13T03:48:37.985Z,11.39
2022-09-13T03:52:02.022Z,11.48
2022-09-13T03:55:23.043Z,11.52
2022-09-13T03:58:44.030Z,11.65
2022-09-13T04:02:05.021Z,11.78
2022-09-13T04:05:26.043Z,11.88
2022-09-13T04:08:47.010Z,12.00
2022-09-13T04:12:08.023Z,12.04
2022-09-13T04:15:29.008Z,12.13
2022-09-13T04:18:50.015Z,12.25
2022-09-13T04:22:11.044Z,12.32
2022-09-13T04:25:32.041Z,12.37
2022-09-13T04:28:53.017Z,12.42
2022-09-13T04:32:14.045Z,12.55
2022-09-13T04:35:36.013Z,12.65
2022-09-13T04:39:00.063Z,12.85
2022-09-13T04:42:21.026Z,13.06
2022-09-13T04:45:42.038Z,13.11
2022-09-13T04:49:04.012Z,13.21
2022-09-13T04:52:25.003Z,13.27
2022-09-13T04:55:46.007Z,13.26
2022-09-13T04:59:09.027Z,13.19
2022-09-13T05:02:30.079Z,13.19
2022-09-13T05:05:51.066Z,13.25
2022-09-13T05:09:12.330Z,13.34
2022-09-13T05:12:33.040Z,13.38
2022-09-13T05:15:54.094Z,13.42
2022-09-13T05:19:15.039Z,13.45
2022-09-13T05:22:36.032Z,13.54
2022-09-13T05:25:57.037Z,13.62
2022-09-13T05:29:18.020Z,13.65
2022-09-13T05:32:39.038Z,13.77
2022-09-13T05:36:01.039Z,13.85
2022-09-13T05:39:43.739Z,13.94
2022-09-13T05:43:11.046Z,14.00
2022-09-13T05:46:34.094Z,14.05
2022-09-13T05:50:09.803Z,14.17
2022-09-13T05:53:31.029Z,14.30
2022-09-13T05:56:52.017Z,14.32
2022-09-13T06:00:13.088Z,14.27
2022-09-13T06:03:34.063Z,14.23
2022-09-13T06:06:55.061Z,14.29
2022-09-13T06:10:17.070Z,14.36
2022-09-13T06:13:39.025Z,14.53
2022-09-13T06:17:00.042Z,14.65
2022-09-13T06:20:23.051Z,14.68
2022-09-13T06:23:44.046Z,14.77
2022-09-13T06:27:05.031Z,14.92
2022-09-13T06:30:26.073Z,15.13
2022-09-13T06:33:49.069Z,15.16
2022-09-13T06:37:11.062Z,15.25
2022-09-13T06:40:32.091Z,15.42
2022-09-13T06:43:54.043Z,15.54
2022-09-13T06:47:15.033Z,15.69
2022-09-13T06:50:36.051Z,15.83
2022-09-13T06:53:58.029Z,15.86
2022-09-13T06:57:19.053Z,15.89
2022-09-13T07:00:40.117Z,15.94
2022-09-13T07:04:01.041Z,15.82
2022-09-13T07:07:22.103Z,15.82
2022-09-13T07:10:43.055Z,16.02
2022-09-13T07:14:06.067Z,16.03
2022-09-13T07:17:20.045Z,16.07
2022-09-13T07:20:41.077Z,16.31
2022-09-13T07:24:02.061Z,16.51
2022-09-13T07:27:23.070Z,16.64
2022-09-13T07:30:44.110Z,16.78
2022-09-13T07:34:13.075Z,17.02
2022-09-13T07:37:34.044Z,16.97
2022-09-13T07:40:55.070Z,16.87
2022-09-13T07:44:17.039Z,16.93
2022-09-13T07:47:38.070Z,16.85
2022-09-13T07:51:10.081Z,16.66
2022-09-13T07:54:32.051Z,16.38
2022-09-13T07:57:53.217Z,16.05
2022-09-13T08:01:23.118Z,15.64
2022-09-13T08:04:44.050Z,15.27
2022-09-13T08:07:58.081Z,15.01
2022-09-13T08:11:20.054Z,14.92
2022-09-13T08:14:41.076Z,14.91
2022-09-13T08:18:02.059Z,15.04
2022-09-13T08:21:23.072Z,15.19
2022-09-13T08:24:45.071Z,15.35
2022-09-13T08:28:06.125Z,15.52
2022-09-13T08:31:29.163Z,15.76
2022-09-13T08:34:50.059Z,15.96
2022-09-13T08:38:11.074Z,16.12
2022-09-13T08:41:44.061Z,16.20
2022-09-13T08:45:09.086Z,16.24
2022-09-13T08:48:34.066Z,16.22
2022-09-13T08:51:59.090Z,16.28
2022-09-13T08:55:39.074Z,16.37
2022-09-13T08:59:06.144Z,16.46
2022-09-13T09:02:51.133Z,16.51
2022-09-13T09:06:12.088Z,16.58
2022-09-13T09:09:35.060Z,16.64
2022-09-13T09:13:27.119Z,16.66
2022-09-13T09:16:56.104Z,16.62
2022-09-13T09:20:39.155Z,16.56
2022-09-13T09:24:04.101Z,16.57
2022-09-13T09:27:30.084Z,16.67
2022-09-13T09:30:59.126Z,17.08
2022-09-13T09:34:58.092Z,17.61
2022-09-13T09:38:22.100Z,18.27
2022-09-13T09:41:46.095Z,18.58
2022-09-13T09:45:12.125Z,18.85
2022-09-13T09:48:38.094Z,19.18
2022-09-13T09:51:59.104Z,19.35
2022-09-13T09:55:48.116Z,19.61
2022-09-13T09:59:10.127Z,19.46
2022-09-13T10:02:34.270Z,19.34
2022-09-13T10:05:56.095Z,19.16
2022-09-13T10:09:33.117Z,18.96
2022-09-13T10:12:54.116Z,18.88
2022-09-13T10:16:37.133Z,18.72
2022-09-13T10:20:08.093Z,18.59
2022-09-13T10:23:34.099Z,18.49
2022-09-13T10:26:55.126Z,18.48
2022-09-13T10:30:18.121Z,18.42
2022-09-13T10:33:38.097Z,18.26
2022-09-13T10:37:29.127Z,18.08
2022-09-13T10:40:51.117Z,17.89
2022-09-13T10:44:14.111Z,17.77
2022-09-13T10:47:51.132Z,17.77
2022-09-13T10:51:16.142Z,17.74
2022-09-13T10:54:38.129Z,17.72
2022-09-13T10:58:03.128Z,17.71
2022-09-13T11:01:30.135Z,17.68
2022-09-13T11:05:13.123Z,17.65
2022-09-13T11:08:57.151Z,17.54
2022-09-13T11:12:50.119Z,17.51
2022-09-13T11:16:20.226Z,17.49
2022-09-13T11:20:02.125Z,17.43
2022-09-13T11:23:51.121Z,17.40
2022-09-13T11:27:21.183Z,17.46
2022-09-13T11:30:47.137Z,17.54
2022-09-13T11:34:32.164Z,17.57
2022-09-13T11:38:15.196Z,17.57
2022-09-13T11:41:45.171Z,17.53
2022-09-13T11:45:23.158Z,17.48
2022-09-13T11:49:08.127Z,17.41
2022-09-13T11:52:34.124Z,17.34
2022-09-13T11:55:57.268Z,17.26
2022-09-13T11:59:19.121Z,17.27
2022-09-13T12:03:02.267Z,17.22
2022-09-13T12:06:34.121Z,17.19
2022-09-13T12:10:06.136Z,17.13
2022-09-13T12:13:36.177Z,17.11
2022-09-13T12:17:04.145Z,17.07
2022-09-13T12:20:57.157Z,17.03
2022-09-13T12:24:27.140Z,16.99
2022-09-13T12:27:54.145Z,16.94
2022-09-13T12:31:26.191Z,16.90
2022-09-13T12:35:03.177Z,16.88
2022-09-13T12:38:42.145Z,16.88
2022-09-13T12:42:25.165Z,16.89
2022-09-13T12:45:56.234Z,16.97
2022-09-13T12:49:35.153Z,17.01
2022-09-13T12:53:15.253Z,17.05
2022-09-13T12:57:13.127Z,17.10
2022-09-13T13:00:43.176Z,17.04
2022-09-13T13:04:07.177Z,17.03
2022-09-13T13:07:37.216Z,16.99
2022-09-13T13:10:58.147Z,16.94
2022-09-13T13:14:19.275Z,16.90
2022-09-13T13:17:52.146Z,16.85
2022-09-13T13:21:13.146Z,16.84
2022-09-13T13:24:34.189Z,16.83
2022-09-13T13:27:58.232Z,16.77
2022-09-13T13:31:21.368Z,16.72
2022-09-13T13:35:04.445Z,16.65
2022-09-13T13:38:37.245Z,16.63
2022-09-13T13:42:03.161Z,16.63
2022-09-13T13:45:40.224Z,16.61
2022-09-13T13:49:01.196Z,16.59
2022-09-13T13:52:29.232Z,16.54
2022-09-13T13:56:02.207Z,16.50
2022-09-13T13:59:30.177Z,16.50
2022-09-13T14:03:23.162Z,16.52
2022-09-13T14:07:19.498Z,16.56
2022-09-13T14:11:03.207Z,16.60
2022-09-13T14:14:30.184Z,16.58
2022-09-13T14:17:51.235Z,16.60
2022-09-13T14:21:31.206Z,16.62
2022-09-13T14:24:55.277Z,16.58
2022-09-13T14:28:16.222Z,16.56
2022-09-13T14:31:37.259Z,16.56
2022-09-13T14:35:06.183Z,16.55
2022-09-13T14:38:42.365Z,16.50
2022-09-13T14:42:12.161Z,16.47
2022-09-13T14:45:42.210Z,16.43
2022-09-13T14:49:15.432Z,16.36
2022-09-13T14:53:11.201Z,16.33
2022-09-13T14:56:39.221Z,16.28
2022-09-13T15:00:08.255Z,16.20
2022-09-13T15:03:31.271Z,16.14
2022-09-13T15:06:54.237Z,16.09
2022-09-13T15:10:38.251Z,16.06
2022-09-13T15:13:59.301Z,16.00
2022-09-13T15:17:26.256Z,15.94
2022-09-13T15:21:08.199Z,15.85
2022-09-13T15:24:41.213Z,15.79
2022-09-13T15:28:03.303Z,15.76
2022-09-13T15:31:33.288Z,15.72
2022-09-13T15:35:00.227Z,15.68
2022-09-13T15:38:30.292Z,15.66
2022-09-13T15:41:54.252Z,15.62
2022-09-13T15:45:15.227Z,15.58
2022-09-13T15:48:47.548Z,15.54
2022-09-13T15:52:10.229Z,15.51
2022-09-13T15:55:31.220Z,15.49
2022-09-13T15:58:52.243Z,15.45
2022-09-13T16:02:15.532Z,15.40
2022-09-13T16:05:36.233Z,15.37
2022-09-13T16:08:57.266Z,15.29
2022-09-13T16:12:20.313Z,15.24
2022-09-13T16:15:42.261Z,15.16
2022-09-13T16:19:03.634Z,15.09
2022-09-13T16:22:24.321Z,15.05
2022-09-13T16:25:45.449Z,15.00
2022-09-13T16:29:06.218Z,14.91
2022-09-13T16:32:27.467Z,14.86
2022-09-13T16:35:48.333Z,14.84
2022-09-13T16:39:10.220Z,14.83
2022-09-13T16:42:31.224Z,14.80
2022-09-13T16:45:54.215Z,14.75
2022-09-13T16:49:16.271Z,14.69
2022-09-13T16:52:38.258Z,14.67
2022-09-13T16:56:01.777Z,14.65
2022-09-13T16:59:24.289Z,14.66
2022-09-13T17:02:45.682Z,14.62
2022-09-13T17:06:29.535Z,14.56
2022-09-13T17:09:50.606Z,14.55
2022-09-13T17:13:12.238Z,14.53
2022-09-13T17:16:37.350Z,14.50
2022-09-13T17:19:59.250Z,14.49
2022-09-13T17:23:20.643Z,14.50
2022-09-13T17:26:41.264Z,14.48
2022-09-13T17:30:02.236Z,14.44
2022-09-13T17:33:23.267Z,14.41
2022-09-13T17:36:46.367Z,14.38
2022-09-13T17:40:10.558Z,14.35
2022-09-13T17:43:32.253Z,14.31
2022-09-13T17:46:53.340Z,14.26
2022-09-13T17:50:15.250Z,14.23
2022-09-13T17:53:37.263Z,14.17
2022-09-13T17:56:59.403Z,14.13
2022-09-13T18:00:21.593Z,14.06
2022-09-13T18:03:45.652Z,14.04
2022-09-13T18:07:07.506Z,14.02
2022-09-13T18:10:49.194Z,13.99
2022-09-13T18:14:09.253Z,13.96
2022-09-13T18:17:30.546Z,13.94
2022-09-13T18:26:20.220Z,13.79
2022-09-13T18:29:41.225Z,13.73
2022-09-13T18:33:39.366Z,13.66
2022-09-13T18:36:47.288Z,13.58
2022-09-13T18:40:08.295Z,13.59
2022-09-13T18:43:29.206Z,13.60
2022-09-13T18:46:51.281Z,13.61
2022-09-13T18:50:13.962Z,13.59
2022-09-13T18:53:38.270Z,13.53
2022-09-13T18:56:55.268Z,13.47
2022-09-13T19:00:10.240Z,13.43
2022-09-13T19:03:31.313Z,13.41
2022-09-13T19:06:57.217Z,13.41
2022-09-13T19:10:18.276Z,13.42
2022-09-13T19:13:39.263Z,13.41
2022-09-13T19:17:00.261Z,13.46
2022-09-13T19:20:21.223Z,13.49
2022-09-13T19:23:58.409Z,13.45
2022-09-13T19:27:21.302Z,13.43
2022-09-13T19:30:42.672Z,13.43
2022-09-13T19:34:05.340Z,13.41
2022-09-13T19:37:26.290Z,13.41
2022-09-13T19:40:47.232Z,13.41
2022-09-13T19:44:10.233Z,13.40
2022-09-13T19:51:24.310Z,13.41
2022-09-13T19:54:45.404Z,13.42
2022-09-13T19:58:06.279Z,13.41
2022-09-13T20:01:30.335Z,13.44
2022-09-13T20:04:51.329Z,13.45
2022-09-13T20:08:14.236Z,13.49
2022-09-13T20:11:38.765Z,13.45
2022-09-13T20:15:02.254Z,13.40
2022-09-13T20:18:23.267Z,13.40
2022-09-13T20:21:47.274Z,13.42
2022-09-13T20:25:08.275Z,13.39
2022-09-13T20:28:30.257Z,13.41
2022-09-13T20:31:51.240Z,13.38
2022-09-13T20:35:12.302Z,13.35
2022-09-13T20:38:33.286Z,13.37
2022-09-13T20:41:56.264Z,13.38
2022-09-13T20:45:17.269Z,13.36
2022-09-13T20:48:38.272Z,13.28
2022-09-13T20:51:59.282Z,13.17
2022-09-13T20:55:21.276Z,13.15
2022-09-13T20:58:42.253Z,13.14
2022-09-13T21:02:03.429Z,13.09
2022-09-13T21:05:24.250Z,13.06
2022-09-13T21:08:48.379Z,13.06
2022-09-13T21:12:09.303Z,13.04
2022-09-13T21:15:30.327Z,13.02
2022-09-13T21:18:52.282Z,13.02
2022-09-13T21:22:13.279Z,13.03
2022-09-13T21:25:34.281Z,13.08
2022-09-13T21:28:57.271Z,13.10
2022-09-13T21:32:18.273Z,13.08
2022-09-13T21:35:39.295Z,13.03
2022-09-13T21:39:02.384Z,12.97
2022-09-13T21:42:23.257Z,12.91
2022-09-13T21:45:44.301Z,12.80
2022-09-13T21:49:08.285Z,12.75
2022-09-13T21:52:29.262Z,12.69
2022-09-13T21:55:50.266Z,12.63
2022-09-13T21:59:13.289Z,12.65
2022-09-13T22:02:34.311Z,12.64
2022-09-13T22:05:55.278Z,12.65
2022-09-13T22:09:20.259Z,12.67
2022-09-13T22:12:41.325Z,12.63
2022-09-13T22:16:02.276Z,12.60
2022-09-13T22:19:49.283Z,12.57
2022-09-13T22:23:11.267Z,12.55
2022-09-13T22:26:41.282Z,12.55
2022-09-13T22:30:02.275Z,12.58
2022-09-13T22:33:23.274Z,12.58
2022-09-13T22:36:44.286Z,12.56
2022-09-13T22:40:06.431Z,12.58
2022-09-13T22:43:27.270Z,12.52
2022-09-13T22:46:51.289Z,12.40
2022-09-13T22:50:12.264Z,12.30
2022-09-13T22:53:35.279Z,12.23
2022-09-13T22:56:56.298Z,12.21
2022-09-13T23:00:17.315Z,12.21
2022-09-13T23:03:39.361Z,12.23
2022-09-13T23:07:00.329Z,12.30
2022-09-13T23:10:21.276Z,12.38
2022-09-13T23:13:42.393Z,12.43
2022-09-13T23:17:04.332Z,12.47
2022-09-13T23:20:26.323Z,12.48
2022-09-13T23:23:47.325Z,12.48
2022-09-13T23:27:08.303Z,12.51
2022-09-13T23:30:29.315Z,12.52
2022-09-13T23:33:54.323Z,12.53
2022-09-13T23:37:15.305Z,12.50
2022-09-13T23:40:36.312Z,12.51
2022-09-13T23:43:58.323Z,12.52
2022-09-13T23:47:19.298Z,12.54
2022-09-13T23:50:40.331Z,12.53
2022-09-13T23:54:03.294Z,12.50
2022-09-13T23:57:24.371Z,12.45
